Portada
METAR-TAF:

METAR-TAF

Aeroports :

Souillac

Briva la Galharda, França

latitud: 45-02-28N, longitud: 001-28-59E, altitud: 311 m

Observació

L'informe es va fer fa 25 minuts, a les 04:30 UTC
Vent 3 kt del Nord/Nord-Oest
Temperatura 1°C
Humitat 80%
Pressió 1030 hPa
Visibilitat 10 km o més
sense núvols per sota de 1500 mi sense presència de cumulonimbus.

METAR: LFSL 200430Z AUTO 34003KT CAVOK 01/M02 Q1030 NOSIG

Hora: 05:55 (04:55 UTC)

Pronòstic

L'informe es va fer fa 2 hores i 55 minuts, a les 02:00 UTC
Pronòstic vàlid del 20 a les 03 UTC al 20 a les 12 UTC
Vent 5 kt del Nord
Visibilitat 10 km o més
sense núvols per sota de 1500 mi sense presència de cumulonimbus.

TAF: LFSL 200200Z 2003/2012 35005KT CAVOK

Observacions i pronòstics meteorològics de més de 4000 aeroports (METAR i TAF).

Les estacions disponibles són els punts grocs i vermells al mapa.

Posi el ratolí al punt desitjat per veure el nom de l'estació.

Feu clic per veure les observacions i els pronòstics meteorològics.

Per canviar el mapa: feu clic els botons verds amb una creu de color negre per apropar; al botó verd amb un guió per allunyar la imatge; o en les fletxes verdes per a mapes adjacents.


METAR-TAF: